createdAt,value
2017-08-20T00:01:26.950Z,15.84
2017-08-20T00:03:54.548Z,15.88
2017-08-20T00:06:22.275Z,15.88
2017-08-20T00:08:49.906Z,15.88
2017-08-20T00:11:17.530Z,15.86
2017-08-20T00:13:45.126Z,15.87
2017-08-20T00:16:12.766Z,15.84
2017-08-20T00:18:40.386Z,15.81
2017-08-20T00:21:07.989Z,15.83
2017-08-20T00:23:35.574Z,15.81
2017-08-20T00:26:03.195Z,15.81
2017-08-20T00:28:30.810Z,15.75
2017-08-20T00:30:58.408Z,15.75
2017-08-20T00:33:26.054Z,15.76
2017-08-20T00:35:53.678Z,15.75
2017-08-20T00:38:21.274Z,15.69
2017-08-20T00:40:48.906Z,15.59
2017-08-20T00:43:16.633Z,15.58
2017-08-20T00:45:44.252Z,15.64
2017-08-20T00:48:11.912Z,15.65
2017-08-20T00:50:39.506Z,15.59
2017-08-20T00:53:07.139Z,15.47
2017-08-20T00:55:34.760Z,15.48
2017-08-20T00:58:02.358Z,15.40
2017-08-20T01:00:29.990Z,15.45
2017-08-20T01:02:57.606Z,15.48
2017-08-20T01:05:25.350Z,15.46
2017-08-20T01:07:52.955Z,15.42
2017-08-20T01:10:20.595Z,15.42
2017-08-20T01:12:48.187Z,15.44
2017-08-20T01:15:15.834Z,15.51
2017-08-20T01:17:43.434Z,15.55
2017-08-20T01:20:11.102Z,15.59
2017-08-20T01:22:38.689Z,15.61
2017-08-20T01:25:06.349Z,15.61
2017-08-20T01:27:34.021Z,15.58
2017-08-20T01:30:01.665Z,15.54
2017-08-20T01:32:29.259Z,15.57
2017-08-20T01:34:56.887Z,15.54
2017-08-20T01:37:24.606Z,15.49
2017-08-20T01:39:52.271Z,15.40
2017-08-20T01:42:19.970Z,15.23
2017-08-20T01:44:47.610Z,15.07
2017-08-20T01:47:15.271Z,15.05
2017-08-20T01:49:42.900Z,14.93
2017-08-20T01:52:10.539Z,14.87
2017-08-20T01:54:38.190Z,14.85
2017-08-20T01:57:05.894Z,14.93
2017-08-20T01:59:33.536Z,14.98
2017-08-20T02:02:01.166Z,14.98
2017-08-20T02:04:28.831Z,15.03
2017-08-20T02:06:56.471Z,15.05
2017-08-20T02:09:24.057Z,15.10
2017-08-20T02:11:51.700Z,15.12
2017-08-20T02:14:19.346Z,15.12
2017-08-20T02:16:46.950Z,15.13
2017-08-20T02:19:14.616Z,15.18
2017-08-20T02:21:42.246Z,15.13
2017-08-20T02:24:09.887Z,15.20
2017-08-20T02:26:37.487Z,15.22
2017-08-20T02:29:05.078Z,15.19
2017-08-20T02:31:32.670Z,15.18
2017-08-20T02:34:00.288Z,15.20
2017-08-20T02:36:27.892Z,15.24
2017-08-20T02:38:55.508Z,15.28
2017-08-20T02:41:23.130Z,15.28
2017-08-20T02:43:50.768Z,15.26
2017-08-20T02:46:18.370Z,15.29
2017-08-20T02:48:46.000Z,15.29
2017-08-20T02:51:13.639Z,15.28
2017-08-20T02:53:41.281Z,15.29
2017-08-20T02:56:08.901Z,15.27
2017-08-20T02:58:36.515Z,15.25
2017-08-20T03:01:04.135Z,15.22
2017-08-20T03:03:31.753Z,15.24
2017-08-20T03:05:59.367Z,15.22
2017-08-20T03:08:26.995Z,15.25
2017-08-20T03:10:54.638Z,15.25
2017-08-20T03:13:22.266Z,15.28
2017-08-20T03:15:49.898Z,15.27
2017-08-20T03:18:17.511Z,15.32
2017-08-20T03:20:45.098Z,15.35
2017-08-20T03:23:12.777Z,15.37
2017-08-20T03:25:40.442Z,15.36
2017-08-20T03:28:08.082Z,15.35
2017-08-20T03:30:35.675Z,15.26
2017-08-20T03:33:03.323Z,15.26
2017-08-20T03:35:30.938Z,15.31
2017-08-20T03:37:58.559Z,15.29
2017-08-20T03:40:26.214Z,15.29
2017-08-20T03:42:53.855Z,15.26
2017-08-20T03:45:21.459Z,15.23
2017-08-20T03:47:49.098Z,15.25
2017-08-20T03:50:16.702Z,15.28
2017-08-20T03:52:44.490Z,15.32
2017-08-20T03:55:12.091Z,15.35
2017-08-20T03:57:39.718Z,15.29
2017-08-20T04:00:07.341Z,15.29
2017-08-20T04:02:34.997Z,15.22
2017-08-20T04:05:02.590Z,15.21
2017-08-20T04:07:30.179Z,15.22
2017-08-20T04:09:57.838Z,15.13
2017-08-20T04:12:25.437Z,15.15
2017-08-20T04:14:53.076Z,15.20
2017-08-20T04:17:20.697Z,15.25
2017-08-20T04:19:48.341Z,15.18
2017-08-20T04:22:16.355Z,15.22
2017-08-20T04:24:43.983Z,15.26
2017-08-20T04:27:11.936Z,15.25
2017-08-20T04:29:39.566Z,15.22
2017-08-20T04:32:07.186Z,15.21
2017-08-20T04:34:34.843Z,15.24
2017-08-20T04:37:02.464Z,15.28
2017-08-20T04:39:30.203Z,15.29
2017-08-20T04:41:57.830Z,15.30
2017-08-20T04:44:25.474Z,15.32
2017-08-20T04:46:53.082Z,15.33
2017-08-20T04:49:20.754Z,15.33
2017-08-20T04:51:48.346Z,15.36
2017-08-20T04:54:15.986Z,15.35
2017-08-20T04:56:43.582Z,15.34
2017-08-20T04:59:11.223Z,15.28
2017-08-20T05:01:38.843Z,15.28
2017-08-20T05:04:06.460Z,15.25
2017-08-20T05:06:34.055Z,15.28
2017-08-20T05:09:01.706Z,15.24
2017-08-20T05:11:29.295Z,15.27
2017-08-20T05:13:56.930Z,15.24
2017-08-20T05:16:24.529Z,15.16
2017-08-20T05:18:52.167Z,15.09
2017-08-20T05:21:19.761Z,15.09
2017-08-20T05:23:47.368Z,15.09
2017-08-20T05:26:15.007Z,15.04
2017-08-20T05:28:42.615Z,15.02
2017-08-20T05:31:10.256Z,15.00
2017-08-20T05:33:37.858Z,15.01
2017-08-20T05:36:05.486Z,15.05
2017-08-20T05:38:33.104Z,15.06
2017-08-20T05:41:00.743Z,15.00
2017-08-20T05:43:28.335Z,15.04
2017-08-20T05:45:55.991Z,15.06
2017-08-20T05:48:23.584Z,15.03
2017-08-20T05:50:51.202Z,15.02
2017-08-20T05:53:18.822Z,15.04
2017-08-20T05:55:46.431Z,15.04
2017-08-20T05:58:14.063Z,15.10
2017-08-20T06:00:41.658Z,15.13
2017-08-20T06:03:09.311Z,15.16
2017-08-20T06:05:36.967Z,15.23
2017-08-20T06:08:04.626Z,15.26
2017-08-20T06:10:32.239Z,15.28
2017-08-20T06:12:59.871Z,15.16
2017-08-20T06:15:27.535Z,15.19
2017-08-20T06:17:55.172Z,15.20
2017-08-20T06:20:22.778Z,15.20
2017-08-20T06:22:50.399Z,15.25
2017-08-20T06:25:18.044Z,15.33
2017-08-20T06:27:45.696Z,15.33
2017-08-20T06:30:13.313Z,15.34
2017-08-20T06:32:40.938Z,15.45
2017-08-20T06:35:08.562Z,15.55
2017-08-20T06:37:36.205Z,15.59
2017-08-20T06:40:03.990Z,15.66
2017-08-20T06:42:31.621Z,15.77
2017-08-20T06:44:59.248Z,15.85
2017-08-20T06:47:26.904Z,15.84
2017-08-20T06:49:54.550Z,15.84
2017-08-20T06:52:22.167Z,15.88
2017-08-20T06:54:49.791Z,15.90
2017-08-20T06:57:17.465Z,15.97
2017-08-20T06:59:45.094Z,15.96
2017-08-20T07:02:12.711Z,15.95
2017-08-20T07:04:40.354Z,15.90
2017-08-20T07:07:07.958Z,15.85
2017-08-20T07:09:35.594Z,15.84
2017-08-20T07:12:03.316Z,15.85
2017-08-20T07:14:30.962Z,15.79
2017-08-20T07:16:58.583Z,15.70
2017-08-20T07:19:26.195Z,15.65
2017-08-20T07:21:53.856Z,15.68
2017-08-20T07:24:21.533Z,15.71
2017-08-20T07:26:49.126Z,15.75
2017-08-20T07:29:16.756Z,15.75
2017-08-20T07:31:44.406Z,15.78
2017-08-20T07:34:12.027Z,15.74
2017-08-20T07:36:39.674Z,15.72
2017-08-20T07:39:07.282Z,15.67
2017-08-20T07:41:34.994Z,15.64
2017-08-20T07:44:02.590Z,15.68
2017-08-20T07:46:30.222Z,15.71
2017-08-20T07:48:57.838Z,15.65
2017-08-20T07:51:25.494Z,15.63
2017-08-20T07:53:53.088Z,15.62
2017-08-20T07:56:20.740Z,15.68
2017-08-20T07:58:48.338Z,15.67
2017-08-20T08:01:15.963Z,15.75
2017-08-20T08:03:43.603Z,15.81
2017-08-20T08:06:11.234Z,15.80
2017-08-20T08:08:38.844Z,15.82
2017-08-20T08:11:06.535Z,15.84
2017-08-20T08:13:34.158Z,15.86
2017-08-20T08:16:01.824Z,15.92
2017-08-20T08:18:29.421Z,15.98
2017-08-20T08:20:57.130Z,16.00
2017-08-20T08:23:24.757Z,16.07
2017-08-20T08:25:52.388Z,16.11
2017-08-20T08:28:20.022Z,16.03
2017-08-20T08:30:47.767Z,16.01
2017-08-20T08:33:15.403Z,16.02
2017-08-20T08:35:43.026Z,16.17
2017-08-20T08:38:10.686Z,16.36
2017-08-20T08:40:38.303Z,16.58
2017-08-20T08:43:05.934Z,16.58
2017-08-20T08:45:33.548Z,16.67
2017-08-20T08:48:01.232Z,16.67
2017-08-20T08:50:28.836Z,16.65
2017-08-20T08:52:56.547Z,16.78
2017-08-20T08:55:24.204Z,16.92
2017-08-20T08:57:51.853Z,16.98
2017-08-20T09:00:19.433Z,17.04
2017-08-20T09:02:47.118Z,17.08
2017-08-20T09:05:14.736Z,17.14
2017-08-20T09:07:42.432Z,17.21
2017-08-20T09:10:10.062Z,17.34
2017-08-20T09:12:37.690Z,17.44
2017-08-20T09:15:05.291Z,17.49
2017-08-20T09:17:32.915Z,17.48
2017-08-20T09:20:00.524Z,17.41
2017-08-20T09:22:28.163Z,17.44
2017-08-20T09:24:55.756Z,17.48
2017-08-20T09:27:23.395Z,17.64
2017-08-20T09:29:51.031Z,17.74
2017-08-20T09:32:18.662Z,17.69
2017-08-20T09:34:46.309Z,17.69
2017-08-20T09:37:13.909Z,17.73
2017-08-20T09:39:41.566Z,17.75
2017-08-20T09:42:09.164Z,17.88
2017-08-20T09:44:36.785Z,17.99
2017-08-20T09:47:04.425Z,18.17
2017-08-20T09:49:32.059Z,18.23
2017-08-20T09:51:59.662Z,18.31
2017-08-20T09:54:27.303Z,18.56
2017-08-20T09:56:54.909Z,18.67
2017-08-20T09:59:22.546Z,18.81
2017-08-20T10:01:50.142Z,18.83
2017-08-20T10:04:17.766Z,18.90
2017-08-20T10:06:45.370Z,18.86
2017-08-20T10:09:13.025Z,18.79
2017-08-20T10:11:40.631Z,18.75
2017-08-20T10:14:08.271Z,18.59
2017-08-20T10:16:35.945Z,18.62
2017-08-20T10:19:03.718Z,18.80
2017-08-20T10:21:31.430Z,18.99
2017-08-20T10:23:59.046Z,19.24
2017-08-20T10:26:26.675Z,19.34
2017-08-20T10:28:54.275Z,19.49
2017-08-20T10:31:21.920Z,19.66
2017-08-20T10:33:49.547Z,19.98
2017-08-20T10:36:18.874Z,20.03
2017-08-20T10:38:46.507Z,20.05
2017-08-20T10:41:14.131Z,19.81
2017-08-20T10:43:41.726Z,19.90
2017-08-20T10:46:09.363Z,19.76
2017-08-20T10:48:37.019Z,19.67
2017-08-20T10:51:04.614Z,19.58
2017-08-20T10:53:32.294Z,19.58
2017-08-20T10:55:59.891Z,19.60
2017-08-20T10:58:27.530Z,19.73
2017-08-20T11:00:55.140Z,19.65
2017-08-20T11:03:22.804Z,19.52
2017-08-20T11:05:50.411Z,19.45
2017-08-20T11:08:18.055Z,19.43
2017-08-20T11:10:45.690Z,19.45
2017-08-20T11:13:13.331Z,19.43
2017-08-20T11:15:40.922Z,19.61
2017-08-20T11:18:08.590Z,19.68
2017-08-20T11:20:36.195Z,19.76
2017-08-20T11:23:03.842Z,19.85
2017-08-20T11:25:31.434Z,19.67
2017-08-20T11:27:59.051Z,19.64
2017-08-20T11:30:26.805Z,19.73
2017-08-20T11:32:54.473Z,19.74
2017-08-20T11:35:22.054Z,19.76
2017-08-20T11:37:49.703Z,19.78
2017-08-20T11:40:17.290Z,19.85
2017-08-20T11:42:44.942Z,19.97
2017-08-20T11:45:12.602Z,19.97
2017-08-20T11:47:40.206Z,20.05
2017-08-20T11:50:07.847Z,20.17
2017-08-20T11:52:35.514Z,20.21
2017-08-20T11:55:03.147Z,20.33
2017-08-20T11:57:30.764Z,20.40
2017-08-20T11:59:58.382Z,20.46
2017-08-20T12:02:26.018Z,20.33
2017-08-20T12:04:53.654Z,19.99
2017-08-20T12:07:21.259Z,19.63
2017-08-20T12:09:48.882Z,19.47
2017-08-20T12:12:17.368Z,19.39
2017-08-20T12:14:44.978Z,19.38
2017-08-20T12:17:12.638Z,19.38
2017-08-20T12:19:40.257Z,19.37
2017-08-20T12:22:07.862Z,19.38
2017-08-20T12:24:35.490Z,19.43
2017-08-20T12:27:03.145Z,19.58
2017-08-20T12:29:30.762Z,19.80
2017-08-20T12:31:58.415Z,20.00
2017-08-20T12:34:26.105Z,20.01
2017-08-20T12:36:53.727Z,19.87
2017-08-20T12:39:21.311Z,19.88
2017-08-20T12:41:48.943Z,19.88
2017-08-20T12:44:16.615Z,19.99
2017-08-20T12:46:44.243Z,20.16
2017-08-20T12:49:11.842Z,20.23
2017-08-20T12:51:39.462Z,20.75
2017-08-20T12:54:07.077Z,21.12
2017-08-20T12:56:34.793Z,21.72
2017-08-20T12:59:04.286Z,22.11
2017-08-20T13:01:32.043Z,22.02
2017-08-20T13:03:59.659Z,21.97
2017-08-20T13:06:27.313Z,21.48
2017-08-20T13:08:54.956Z,21.33
2017-08-20T13:11:22.586Z,21.50
2017-08-20T13:13:50.178Z,21.23
2017-08-20T13:16:17.837Z,21.42
2017-08-20T13:18:45.450Z,21.58
2017-08-20T13:21:13.099Z,21.94
2017-08-20T13:23:40.715Z,22.07
2017-08-20T13:26:08.402Z,22.17
2017-08-20T13:28:36.011Z,21.87
2017-08-20T13:31:03.637Z,21.48
2017-08-20T13:33:31.231Z,21.29
2017-08-20T13:35:58.853Z,21.12
2017-08-20T13:38:26.501Z,21.42
2017-08-20T13:40:54.220Z,21.29
2017-08-20T13:43:21.846Z,21.10
2017-08-20T13:45:49.526Z,21.33
2017-08-20T13:48:17.131Z,21.95
2017-08-20T13:50:44.791Z,22.42
2017-08-20T13:53:12.412Z,22.45
2017-08-20T13:55:40.042Z,22.03
2017-08-20T13:58:07.671Z,21.64
2017-08-20T14:00:35.278Z,21.41
2017-08-20T14:03:02.991Z,21.32
2017-08-20T14:05:30.577Z,21.39
2017-08-20T14:07:58.441Z,21.18
2017-08-20T14:10:26.063Z,21.05
2017-08-20T14:12:53.682Z,20.95
2017-08-20T14:15:21.281Z,20.89
2017-08-20T14:17:48.922Z,20.91
2017-08-20T14:20:16.527Z,21.13
2017-08-20T14:22:44.170Z,21.19
2017-08-20T14:25:11.771Z,21.07
2017-08-20T14:27:39.603Z,21.09
2017-08-20T14:30:07.310Z,21.05
2017-08-20T14:32:35.067Z,20.89
2017-08-20T14:35:02.770Z,20.88
2017-08-20T14:37:30.419Z,20.73
2017-08-20T14:39:58.059Z,20.64
2017-08-20T14:42:25.683Z,20.66
2017-08-20T14:44:53.304Z,20.68
2017-08-20T14:47:20.918Z,20.73
2017-08-20T14:49:48.631Z,20.73
2017-08-20T14:52:16.234Z,20.59
2017-08-20T14:54:43.863Z,20.45
2017-08-20T14:57:11.485Z,20.58
2017-08-20T14:59:39.135Z,20.72
2017-08-20T15:02:06.746Z,20.84
2017-08-20T15:04:34.376Z,20.87
2017-08-20T15:07:01.978Z,20.80
2017-08-20T15:09:29.630Z,20.85
2017-08-20T15:11:57.282Z,20.96
2017-08-20T15:14:24.928Z,20.99
2017-08-20T15:16:52.531Z,20.92
2017-08-20T15:19:20.196Z,20.90
2017-08-20T15:21:47.804Z,21.15
2017-08-20T15:24:15.519Z,21.27
2017-08-20T15:26:43.119Z,21.35
2017-08-20T15:29:10.806Z,21.68
2017-08-20T15:31:38.407Z,21.93
2017-08-20T15:34:06.042Z,22.35
2017-08-20T15:36:33.664Z,22.70
2017-08-20T15:39:01.311Z,22.77
2017-08-20T15:41:28.905Z,22.60
2017-08-20T15:43:56.535Z,22.62
2017-08-20T15:46:24.154Z,22.15
2017-08-20T15:48:51.775Z,21.95
2017-08-20T15:51:19.412Z,21.53
2017-08-20T15:53:47.057Z,21.73
2017-08-20T15:56:14.671Z,21.91
2017-08-20T15:58:42.295Z,21.73
2017-08-20T16:01:09.947Z,21.80
2017-08-20T16:03:37.558Z,22.16
2017-08-20T16:06:05.177Z,22.44
2017-08-20T16:08:32.827Z,22.46
2017-08-20T16:11:00.499Z,22.28
2017-08-20T16:13:28.112Z,21.91
2017-08-20T16:15:55.719Z,21.72
2017-08-20T16:18:23.358Z,21.90
2017-08-20T16:20:50.955Z,22.11
2017-08-20T16:23:18.564Z,21.92
2017-08-20T16:25:46.179Z,22.02
2017-08-20T16:28:13.792Z,22.41
2017-08-20T16:30:41.419Z,22.62
2017-08-20T16:33:09.046Z,22.72
2017-08-20T16:35:36.658Z,22.72
2017-08-20T16:38:04.251Z,22.53
2017-08-20T16:40:31.886Z,22.60
2017-08-20T16:42:59.534Z,22.46
2017-08-20T16:45:27.154Z,22.25
2017-08-20T16:47:54.753Z,21.93
2017-08-20T16:50:22.390Z,21.84
2017-08-20T16:52:49.983Z,21.62
2017-08-20T16:55:17.594Z,21.38
2017-08-20T16:57:45.222Z,21.31
2017-08-20T17:00:12.884Z,21.21
2017-08-20T17:02:40.522Z,21.11
2017-08-20T17:05:08.123Z,21.18
2017-08-20T17:07:35.802Z,21.29
2017-08-20T17:10:03.387Z,21.32
2017-08-20T17:12:31.014Z,21.42
2017-08-20T17:14:58.711Z,21.65
2017-08-20T17:17:26.342Z,21.77
2017-08-20T17:19:53.927Z,21.85
2017-08-20T17:22:21.563Z,21.83
2017-08-20T17:24:49.171Z,21.63
2017-08-20T17:27:16.809Z,21.45
2017-08-20T17:29:44.398Z,21.32
2017-08-20T17:32:12.062Z,21.18
2017-08-20T17:34:39.662Z,21.20
2017-08-20T17:37:07.270Z,21.09
2017-08-20T17:39:34.924Z,20.86
2017-08-20T17:42:02.528Z,20.55
2017-08-20T17:44:30.191Z,20.44
2017-08-20T17:46:57.943Z,20.45
2017-08-20T17:49:25.647Z,20.40
2017-08-20T17:51:53.315Z,20.34
2017-08-20T17:54:20.957Z,20.19
2017-08-20T17:56:48.588Z,20.09
2017-08-20T18:01:43.157Z,19.96
2017-08-20T18:04:10.819Z,20.04
2017-08-20T18:06:38.428Z,20.05
2017-08-20T18:09:06.098Z,20.02
2017-08-20T18:11:33.718Z,19.98
2017-08-20T18:14:01.342Z,19.95
2017-08-20T18:16:29.047Z,19.93
2017-08-20T18:18:56.675Z,19.91
2017-08-20T18:21:24.300Z,19.90
2017-08-20T18:23:51.939Z,19.91
2017-08-20T18:26:19.552Z,19.91
2017-08-20T18:28:47.162Z,19.88
2017-08-20T18:31:14.844Z,19.85
2017-08-20T18:33:42.471Z,19.86
2017-08-20T18:36:10.116Z,19.85
2017-08-20T18:38:37.736Z,19.86
2017-08-20T18:41:05.454Z,19.80
2017-08-20T18:43:33.062Z,19.71
2017-08-20T18:46:00.711Z,19.66
2017-08-20T18:48:28.363Z,19.65
2017-08-20T18:50:55.982Z,19.67
2017-08-20T18:53:23.652Z,19.65
2017-08-20T18:55:51.303Z,19.62
2017-08-20T18:58:18.972Z,19.60
2017-08-20T19:00:46.594Z,19.58
2017-08-20T19:03:14.247Z,19.56
2017-08-20T19:05:41.927Z,19.59
2017-08-20T19:08:09.568Z,19.61
2017-08-20T19:10:37.211Z,19.65
2017-08-20T19:13:04.854Z,19.68
2017-08-20T19:15:32.488Z,19.76
2017-08-20T19:18:00.176Z,20.01
2017-08-20T19:20:27.800Z,20.25
2017-08-20T19:22:55.456Z,20.52
2017-08-20T19:25:23.085Z,20.94
2017-08-20T19:27:50.710Z,21.74
2017-08-20T19:30:18.381Z,22.84
2017-08-20T19:32:46.056Z,23.41
2017-08-20T19:35:13.694Z,23.52
2017-08-20T19:37:41.299Z,23.52
2017-08-20T19:40:08.935Z,23.58
2017-08-20T19:42:36.616Z,23.40
2017-08-20T19:45:04.281Z,23.30
2017-08-20T19:47:31.894Z,23.96
2017-08-20T19:49:59.596Z,24.43
2017-08-20T19:52:27.260Z,24.74
2017-08-20T19:54:54.963Z,24.80
2017-08-20T19:57:22.594Z,24.39
2017-08-20T19:59:50.256Z,24.12
2017-08-20T20:02:17.854Z,23.74
2017-08-20T20:04:45.486Z,23.35
2017-08-20T20:07:13.085Z,22.95
2017-08-20T20:09:40.728Z,22.54
2017-08-20T20:12:08.330Z,22.15
2017-08-20T20:14:35.960Z,21.83
2017-08-20T20:17:03.627Z,21.57
2017-08-20T20:19:31.298Z,21.33
2017-08-20T20:21:58.944Z,21.17
2017-08-20T20:24:26.583Z,20.99
2017-08-20T20:26:54.219Z,20.82
2017-08-20T20:29:21.839Z,20.67
2017-08-20T20:31:49.515Z,20.53
2017-08-20T20:34:17.112Z,20.43
2017-08-20T20:36:44.799Z,20.35
2017-08-20T20:39:12.401Z,20.27
2017-08-20T20:41:40.038Z,20.20
2017-08-20T20:44:07.655Z,20.10
2017-08-20T20:46:35.275Z,20.01
2017-08-20T20:49:02.866Z,19.91
2017-08-20T20:51:30.511Z,19.80
2017-08-20T20:53:58.128Z,19.73
2017-08-20T20:56:25.782Z,19.67
2017-08-20T20:58:53.387Z,19.59
2017-08-20T21:01:21.003Z,19.53
2017-08-20T21:03:48.635Z,19.49
2017-08-20T21:06:16.249Z,19.44
2017-08-20T21:08:43.930Z,19.36
2017-08-20T21:11:11.534Z,19.27
2017-08-20T21:13:39.175Z,19.21
2017-08-20T21:16:06.802Z,19.16
2017-08-20T21:18:34.448Z,19.13
2017-08-20T21:21:02.047Z,19.11
2017-08-20T21:23:29.692Z,19.04
2017-08-20T21:25:57.298Z,18.88
2017-08-20T21:28:24.949Z,18.83
2017-08-20T21:30:52.582Z,18.77
2017-08-20T21:33:20.223Z,18.76
2017-08-20T21:35:47.855Z,18.73
2017-08-20T21:38:15.502Z,18.66
2017-08-20T21:40:43.105Z,18.69
2017-08-20T21:43:10.860Z,18.74
2017-08-20T21:45:38.551Z,18.72
2017-08-20T21:48:06.172Z,18.62
2017-08-20T21:50:33.791Z,18.56
2017-08-20T21:53:01.411Z,18.52
2017-08-20T21:55:29.040Z,18.41
2017-08-20T21:57:56.674Z,18.37
2017-08-20T22:00:24.346Z,18.38
2017-08-20T22:02:52.013Z,18.35
2017-08-20T22:05:19.641Z,18.31
2017-08-20T22:07:47.273Z,18.33
2017-08-20T22:10:14.927Z,18.28
2017-08-20T22:12:42.546Z,18.32
2017-08-20T22:15:10.178Z,18.36
2017-08-20T22:17:37.782Z,18.36
2017-08-20T22:20:05.423Z,18.28
2017-08-20T22:22:33.021Z,18.15
2017-08-20T22:25:00.691Z,18.06
2017-08-20T22:27:28.295Z,18.01
2017-08-20T22:29:55.927Z,18.00
2017-08-20T22:32:23.575Z,18.04
2017-08-20T22:34:51.340Z,18.07
2017-08-20T22:37:18.947Z,18.03
2017-08-20T22:39:46.611Z,17.99
2017-08-20T22:42:14.215Z,18.00
2017-08-20T22:44:41.839Z,18.02
2017-08-20T22:47:09.448Z,18.06
2017-08-20T22:49:37.083Z,18.09
2017-08-20T22:52:04.679Z,18.07
2017-08-20T22:54:32.474Z,18.02
2017-08-20T22:57:00.074Z,18.02
2017-08-20T22:59:27.687Z,18.00
2017-08-20T23:01:55.271Z,18.03
2017-08-20T23:04:22.946Z,17.99
2017-08-20T23:06:50.552Z,17.96
2017-08-20T23:09:18.242Z,17.92
2017-08-20T23:11:45.830Z,17.93
2017-08-20T23:14:13.455Z,17.88
2017-08-20T23:16:41.039Z,17.71
2017-08-20T23:19:08.698Z,17.71
2017-08-20T23:21:36.300Z,17.75
2017-08-20T23:24:03.939Z,17.78
2017-08-20T23:26:31.532Z,17.82
2017-08-20T23:28:59.173Z,17.82
2017-08-20T23:31:26.770Z,17.75
2017-08-20T23:33:54.370Z,17.68
2017-08-20T23:36:21.990Z,17.56
2017-08-20T23:38:49.578Z,17.50
2017-08-20T23:41:17.218Z,17.49
2017-08-20T23:43:44.816Z,17.58
2017-08-20T23:46:12.431Z,17.56
2017-08-20T23:48:40.023Z,17.57
2017-08-20T23:51:07.711Z,17.56
2017-08-20T23:53:35.308Z,17.46
2017-08-20T23:56:02.922Z,17.37
2017-08-20T23:58:30.582Z,17.40
